sensor_id;sensor_type;location;lat;lon;timestamp;P1;durP1;ratioP1;P2;durP2;ratioP2
38783;SDS011;24531;45.502;12.238;2024-02-26T00:01:27;13.48;;;10.77;;
38783;SDS011;24531;45.502;12.238;2024-02-26T00:03:58;15.40;;;11.07;;
38783;SDS011;24531;45.502;12.238;2024-02-26T00:06:24;16.98;;;11.07;;
38783;SDS011;24531;45.502;12.238;2024-02-26T00:08:50;17.70;;;12.65;;
38783;SDS011;24531;45.502;12.238;2024-02-26T00:11:16;31.00;;;19.80;;
38783;SDS011;24531;45.502;12.238;2024-02-26T00:13:41;18.88;;;12.77;;
38783;SDS011;24531;45.502;12.238;2024-02-26T00:16:07;15.60;;;11.48;;
38783;SDS011;24531;45.502;12.238;2024-02-26T00:18:33;18.30;;;11.77;;
38783;SDS011;24531;45.502;12.238;2024-02-26T00:20:59;15.50;;;11.73;;
38783;SDS011;24531;45.502;12.238;2024-02-26T00:23:25;15.73;;;12.07;;
38783;SDS011;24531;45.502;12.238;2024-02-26T00:25:52;14.93;;;11.63;;
38783;SDS011;24531;45.502;12.238;2024-02-26T00:28:17;16.17;;;11.80;;
38783;SDS011;24531;45.502;12.238;2024-02-26T00:30:44;15.55;;;12.20;;
38783;SDS011;24531;45.502;12.238;2024-02-26T00:33:10;16.92;;;13.00;;
38783;SDS011;24531;45.502;12.238;2024-02-26T00:35:36;13.13;;;10.90;;
38783;SDS011;24531;45.502;12.238;2024-02-26T00:38:02;18.20;;;11.57;;
38783;SDS011;24531;45.502;12.238;2024-02-26T00:40:28;16.15;;;11.30;;
38783;SDS011;24531;45.502;12.238;2024-02-26T00:42:54;15.73;;;10.82;;
38783;SDS011;24531;45.502;12.238;2024-02-26T00:45:19;14.68;;;11.43;;
38783;SDS011;24531;45.502;12.238;2024-02-26T00:47:45;14.45;;;11.80;;
38783;SDS011;24531;45.502;12.238;2024-02-26T00:50:12;18.02;;;11.25;;
38783;SDS011;24531;45.502;12.238;2024-02-26T00:52:39;15.55;;;11.48;;
38783;SDS011;24531;45.502;12.238;2024-02-26T00:55:05;17.52;;;11.55;;
38783;SDS011;24531;45.502;12.238;2024-02-26T00:57:31;14.32;;;11.05;;
38783;SDS011;24531;45.502;12.238;2024-02-26T00:59:57;15.65;;;10.98;;
38783;SDS011;24531;45.502;12.238;2024-02-26T01:02:22;12.85;;;10.05;;
38783;SDS011;24531;45.502;12.238;2024-02-26T01:04:48;11.93;;;10.23;;
38783;SDS011;24531;45.502;12.238;2024-02-26T01:07:13;12.80;;;10.25;;
38783;SDS011;24531;45.502;12.238;2024-02-26T01:09:39;13.35;;;10.05;;
38783;SDS011;24531;45.502;12.238;2024-02-26T01:12:05;13.13;;;10.75;;
38783;SDS011;24531;45.502;12.238;2024-02-26T01:14:30;15.25;;;10.45;;
38783;SDS011;24531;45.502;12.238;2024-02-26T01:16:56;12.98;;;10.63;;
38783;SDS011;24531;45.502;12.238;2024-02-26T01:19:22;14.70;;;10.57;;
38783;SDS011;24531;45.502;12.238;2024-02-26T01:21:47;13.30;;;10.10;;
38783;SDS011;24531;45.502;12.238;2024-02-26T01:24:13;13.13;;;9.98;;
38783;SDS011;24531;45.502;12.238;2024-02-26T01:26:39;12.90;;;9.82;;
38783;SDS011;24531;45.502;12.238;2024-02-26T01:29:04;13.77;;;9.75;;
38783;SDS011;24531;45.502;12.238;2024-02-26T01:31:30;10.35;;;9.15;;
38783;SDS011;24531;45.502;12.238;2024-02-26T01:33:56;13.57;;;9.35;;
38783;SDS011;24531;45.502;12.238;2024-02-26T01:36:21;12.40;;;8.80;;
38783;SDS011;24531;45.502;12.238;2024-02-26T01:38:47;11.10;;;8.70;;
38783;SDS011;24531;45.502;12.238;2024-02-26T01:41:16;15.30;;;9.88;;
38783;SDS011;24531;45.502;12.238;2024-02-26T01:43:41;12.00;;;9.05;;
38783;SDS011;24531;45.502;12.238;2024-02-26T01:46:08;10.65;;;8.82;;
38783;SDS011;24531;45.502;12.238;2024-02-26T01:48:39;12.90;;;9.55;;
38783;SDS011;24531;45.502;12.238;2024-02-26T01:51:06;13.02;;;8.88;;
38783;SDS011;24531;45.502;12.238;2024-02-26T01:53:32;13.35;;;10.02;;
38783;SDS011;24531;45.502;12.238;2024-02-26T01:55:59;11.27;;;9.27;;
38783;SDS011;24531;45.502;12.238;2024-02-26T01:58:24;10.55;;;9.02;;
38783;SDS011;24531;45.502;12.238;2024-02-26T02:00:50;10.98;;;9.48;;
38783;SDS011;24531;45.502;12.238;2024-02-26T02:03:16;12.80;;;9.57;;
38783;SDS011;24531;45.502;12.238;2024-02-26T02:05:42;11.43;;;9.30;;
38783;SDS011;24531;45.502;12.238;2024-02-26T02:08:08;12.75;;;9.05;;
38783;SDS011;24531;45.502;12.238;2024-02-26T02:10:36;13.40;;;9.50;;
38783;SDS011;24531;45.502;12.238;2024-02-26T02:13:03;10.93;;;8.70;;
38783;SDS011;24531;45.502;12.238;2024-02-26T02:15:29;12.25;;;9.45;;
38783;SDS011;24531;45.502;12.238;2024-02-26T02:17:54;10.98;;;9.27;;
38783;SDS011;24531;45.502;12.238;2024-02-26T02:20:24;11.60;;;9.80;;
38783;SDS011;24531;45.502;12.238;2024-02-26T02:22:52;14.57;;;9.40;;
38783;SDS011;24531;45.502;12.238;2024-02-26T02:25:18;14.40;;;9.15;;
38783;SDS011;24531;45.502;12.238;2024-02-26T02:27:43;14.52;;;10.35;;
38783;SDS011;24531;45.502;12.238;2024-02-26T02:30:10;12.98;;;9.80;;
38783;SDS011;24531;45.502;12.238;2024-02-26T02:32:39;12.25;;;9.90;;
38783;SDS011;24531;45.502;12.238;2024-02-26T02:35:06;12.20;;;9.73;;
38783;SDS011;24531;45.502;12.238;2024-02-26T02:37:32;13.75;;;10.90;;
38783;SDS011;24531;45.502;12.238;2024-02-26T02:39:58;11.85;;;9.85;;
38783;SDS011;24531;45.502;12.238;2024-02-26T02:42:23;13.73;;;11.43;;
38783;SDS011;24531;45.502;12.238;2024-02-26T02:44:49;15.13;;;10.93;;
38783;SDS011;24531;45.502;12.238;2024-02-26T02:47:15;13.18;;;10.07;;
38783;SDS011;24531;45.502;12.238;2024-02-26T02:49:41;12.23;;;10.45;;
38783;SDS011;24531;45.502;12.238;2024-02-26T02:52:06;12.65;;;9.75;;
38783;SDS011;24531;45.502;12.238;2024-02-26T02:54:32;14.35;;;10.52;;
38783;SDS011;24531;45.502;12.238;2024-02-26T02:56:57;11.52;;;10.32;;
38783;SDS011;24531;45.502;12.238;2024-02-26T02:59:23;12.25;;;10.48;;
38783;SDS011;24531;45.502;12.238;2024-02-26T03:01:50;13.00;;;10.55;;
38783;SDS011;24531;45.502;12.238;2024-02-26T03:04:17;14.45;;;11.80;;
38783;SDS011;24531;45.502;12.238;2024-02-26T03:06:42;11.40;;;9.63;;
38783;SDS011;24531;45.502;12.238;2024-02-26T03:09:08;13.75;;;10.25;;
38783;SDS011;24531;45.502;12.238;2024-02-26T03:11:34;13.57;;;10.77;;
38783;SDS011;24531;45.502;12.238;2024-02-26T03:13:59;15.05;;;10.70;;
38783;SDS011;24531;45.502;12.238;2024-02-26T03:16:25;12.73;;;9.60;;
38783;SDS011;24531;45.502;12.238;2024-02-26T03:18:51;15.60;;;10.93;;
38783;SDS011;24531;45.502;12.238;2024-02-26T03:21:16;15.38;;;11.07;;
38783;SDS011;24531;45.502;12.238;2024-02-26T03:23:43;16.88;;;10.65;;
38783;SDS011;24531;45.502;12.238;2024-02-26T03:26:08;13.25;;;10.60;;
38783;SDS011;24531;45.502;12.238;2024-02-26T03:28:38;14.55;;;10.63;;
38783;SDS011;24531;45.502;12.238;2024-02-26T03:31:04;14.20;;;10.80;;
38783;SDS011;24531;45.502;12.238;2024-02-26T03:33:29;13.07;;;9.82;;
38783;SDS011;24531;45.502;12.238;2024-02-26T03:35:55;14.10;;;10.48;;
38783;SDS011;24531;45.502;12.238;2024-02-26T03:38:21;12.68;;;10.07;;
38783;SDS011;24531;45.502;12.238;2024-02-26T03:40:47;11.65;;;10.15;;
38783;SDS011;24531;45.502;12.238;2024-02-26T03:43:12;12.57;;;9.80;;
38783;SDS011;24531;45.502;12.238;2024-02-26T03:45:38;13.43;;;10.68;;
38783;SDS011;24531;45.502;12.238;2024-02-26T03:48:04;12.75;;;9.43;;
38783;SDS011;24531;45.502;12.238;2024-02-26T03:50:30;11.05;;;9.63;;
38783;SDS011;24531;45.502;12.238;2024-02-26T03:52:55;12.15;;;9.85;;
38783;SDS011;24531;45.502;12.238;2024-02-26T03:55:22;12.68;;;9.48;;
38783;SDS011;24531;45.502;12.238;2024-02-26T03:57:50;13.23;;;10.38;;
38783;SDS011;24531;45.502;12.238;2024-02-26T04:00:19;10.90;;;9.48;;
38783;SDS011;24531;45.502;12.238;2024-02-26T04:02:46;12.55;;;9.63;;
38783;SDS011;24531;45.502;12.238;2024-02-26T04:05:12;13.00;;;10.23;;
38783;SDS011;24531;45.502;12.238;2024-02-26T04:07:38;13.45;;;10.07;;
38783;SDS011;24531;45.502;12.238;2024-02-26T04:10:08;11.07;;;9.52;;
38783;SDS011;24531;45.502;12.238;2024-02-26T04:12:34;12.65;;;10.52;;
38783;SDS011;24531;45.502;12.238;2024-02-26T04:15:00;11.73;;;9.63;;
38783;SDS011;24531;45.502;12.238;2024-02-26T04:17:25;12.68;;;9.85;;
38783;SDS011;24531;45.502;12.238;2024-02-26T04:19:51;11.07;;;8.95;;
38783;SDS011;24531;45.502;12.238;2024-02-26T04:22:17;12.98;;;9.45;;
38783;SDS011;24531;45.502;12.238;2024-02-26T04:24:42;13.48;;;9.98;;
38783;SDS011;24531;45.502;12.238;2024-02-26T04:27:08;14.43;;;10.05;;
38783;SDS011;24531;45.502;12.238;2024-02-26T04:29:33;12.98;;;10.10;;
38783;SDS011;24531;45.502;12.238;2024-02-26T04:31:59;16.10;;;10.70;;
38783;SDS011;24531;45.502;12.238;2024-02-26T04:34:25;14.10;;;9.65;;
38783;SDS011;24531;45.502;12.238;2024-02-26T04:36:50;13.90;;;9.90;;
38783;SDS011;24531;45.502;12.238;2024-02-26T04:39:16;14.00;;;9.80;;
38783;SDS011;24531;45.502;12.238;2024-02-26T04:41:41;12.68;;;10.15;;
38783;SDS011;24531;45.502;12.238;2024-02-26T04:44:07;10.80;;;9.07;;
38783;SDS011;24531;45.502;12.238;2024-02-26T04:46:32;12.10;;;9.80;;
38783;SDS011;24531;45.502;12.238;2024-02-26T04:48:58;12.40;;;9.27;;
38783;SDS011;24531;45.502;12.238;2024-02-26T04:51:24;10.10;;;9.05;;
38783;SDS011;24531;45.502;12.238;2024-02-26T04:53:49;12.45;;;8.80;;
38783;SDS011;24531;45.502;12.238;2024-02-26T04:56:15;12.45;;;9.38;;
38783;SDS011;24531;45.502;12.238;2024-02-26T04:58:41;15.98;;;10.10;;
38783;SDS011;24531;45.502;12.238;2024-02-26T05:01:06;10.88;;;9.02;;
38783;SDS011;24531;45.502;12.238;2024-02-26T05:03:33;14.82;;;9.00;;
38783;SDS011;24531;45.502;12.238;2024-02-26T05:06:00;15.05;;;8.63;;
38783;SDS011;24531;45.502;12.238;2024-02-26T05:08:25;12.70;;;8.35;;
38783;SDS011;24531;45.502;12.238;2024-02-26T05:10:51;11.80;;;8.85;;
38783;SDS011;24531;45.502;12.238;2024-02-26T05:13:17;11.82;;;8.52;;
38783;SDS011;24531;45.502;12.238;2024-02-26T05:15:43;13.20;;;9.35;;
38783;SDS011;24531;45.502;12.238;2024-02-26T05:18:16;10.15;;;8.30;;
38783;SDS011;24531;45.502;12.238;2024-02-26T05:20:42;10.50;;;8.13;;
38783;SDS011;24531;45.502;12.238;2024-02-26T05:23:07;12.00;;;8.82;;
38783;SDS011;24531;45.502;12.238;2024-02-26T05:25:33;11.98;;;8.68;;
38783;SDS011;24531;45.502;12.238;2024-02-26T05:27:58;11.75;;;8.65;;
38783;SDS011;24531;45.502;12.238;2024-02-26T05:30:24;11.68;;;9.05;;
38783;SDS011;24531;45.502;12.238;2024-02-26T05:32:51;12.02;;;9.90;;
38783;SDS011;24531;45.502;12.238;2024-02-26T05:35:17;12.27;;;9.27;;
38783;SDS011;24531;45.502;12.238;2024-02-26T05:37:43;13.68;;;9.65;;
38783;SDS011;24531;45.502;12.238;2024-02-26T05:40:08;18.48;;;10.70;;
38783;SDS011;24531;45.502;12.238;2024-02-26T05:42:34;11.65;;;8.63;;
38783;SDS011;24531;45.502;12.238;2024-02-26T05:45:00;11.77;;;10.15;;
38783;SDS011;24531;45.502;12.238;2024-02-26T05:47:31;17.23;;;10.20;;
38783;SDS011;24531;45.502;12.238;2024-02-26T05:49:59;13.05;;;10.43;;
38783;SDS011;24531;45.502;12.238;2024-02-26T05:52:26;12.23;;;10.13;;
38783;SDS011;24531;45.502;12.238;2024-02-26T05:54:53;12.32;;;9.85;;
38783;SDS011;24531;45.502;12.238;2024-02-26T05:57:19;14.55;;;10.02;;
38783;SDS011;24531;45.502;12.238;2024-02-26T05:59:44;14.10;;;9.88;;
38783;SDS011;24531;45.502;12.238;2024-02-26T06:02:10;14.82;;;10.65;;
38783;SDS011;24531;45.502;12.238;2024-02-26T06:04:36;13.90;;;10.27;;
38783;SDS011;24531;45.502;12.238;2024-02-26T06:07:01;11.30;;;9.70;;
38783;SDS011;24531;45.502;12.238;2024-02-26T06:09:27;12.40;;;9.38;;
38783;SDS011;24531;45.502;12.238;2024-02-26T06:11:53;13.32;;;10.13;;
38783;SDS011;24531;45.502;12.238;2024-02-26T06:14:18;10.65;;;9.57;;
38783;SDS011;24531;45.502;12.238;2024-02-26T06:16:45;13.48;;;9.52;;
38783;SDS011;24531;45.502;12.238;2024-02-26T06:19:11;13.93;;;9.57;;
38783;SDS011;24531;45.502;12.238;2024-02-26T06:21:37;11.07;;;8.98;;
38783;SDS011;24531;45.502;12.238;2024-02-26T06:24:02;11.02;;;9.13;;
38783;SDS011;24531;45.502;12.238;2024-02-26T06:26:28;12.50;;;9.40;;
38783;SDS011;24531;45.502;12.238;2024-02-26T06:28:54;13.43;;;10.07;;
38783;SDS011;24531;45.502;12.238;2024-02-26T06:31:21;14.55;;;10.50;;
38783;SDS011;24531;45.502;12.238;2024-02-26T06:33:48;14.30;;;11.23;;
38783;SDS011;24531;45.502;12.238;2024-02-26T06:36:15;12.10;;;9.93;;
38783;SDS011;24531;45.502;12.238;2024-02-26T06:38:41;12.57;;;9.70;;
38783;SDS011;24531;45.502;12.238;2024-02-26T06:41:06;11.23;;;9.77;;
38783;SDS011;24531;45.502;12.238;2024-02-26T06:43:32;11.10;;;9.77;;
38783;SDS011;24531;45.502;12.238;2024-02-26T06:45:57;11.85;;;10.52;;
38783;SDS011;24531;45.502;12.238;2024-02-26T06:48:24;12.90;;;10.48;;
38783;SDS011;24531;45.502;12.238;2024-02-26T06:50:49;13.35;;;10.18;;
38783;SDS011;24531;45.502;12.238;2024-02-26T06:53:15;17.17;;;11.25;;
38783;SDS011;24531;45.502;12.238;2024-02-26T06:55:41;12.75;;;10.45;;
38783;SDS011;24531;45.502;12.238;2024-02-26T06:58:07;13.05;;;10.40;;
38783;SDS011;24531;45.502;12.238;2024-02-26T07:00:33;12.13;;;9.75;;
38783;SDS011;24531;45.502;12.238;2024-02-26T07:02:59;12.50;;;10.20;;
38783;SDS011;24531;45.502;12.238;2024-02-26T07:05:25;12.75;;;9.45;;
38783;SDS011;24531;45.502;12.238;2024-02-26T07:07:50;11.95;;;8.98;;
38783;SDS011;24531;45.502;12.238;2024-02-26T07:10:16;12.35;;;9.63;;
38783;SDS011;24531;45.502;12.238;2024-02-26T07:12:42;10.55;;;9.45;;
38783;SDS011;24531;45.502;12.238;2024-02-26T07:15:08;12.13;;;9.63;;
38783;SDS011;24531;45.502;12.238;2024-02-26T07:17:34;12.18;;;9.68;;
38783;SDS011;24531;45.502;12.238;2024-02-26T07:20:00;11.32;;;9.35;;
38783;SDS011;24531;45.502;12.238;2024-02-26T07:22:29;12.43;;;9.75;;
38783;SDS011;24531;45.502;12.238;2024-02-26T07:24:55;16.70;;;10.57;;
38783;SDS011;24531;45.502;12.238;2024-02-26T07:27:20;14.00;;;10.02;;
38783;SDS011;24531;45.502;12.238;2024-02-26T07:29:46;17.77;;;10.60;;
38783;SDS011;24531;45.502;12.238;2024-02-26T07:32:12;13.93;;;9.38;;
38783;SDS011;24531;45.502;12.238;2024-02-26T07:34:38;12.70;;;10.63;;
38783;SDS011;24531;45.502;12.238;2024-02-26T07:37:06;15.98;;;10.60;;
38783;SDS011;24531;45.502;12.238;2024-02-26T07:39:32;16.38;;;10.88;;
38783;SDS011;24531;45.502;12.238;2024-02-26T07:41:58;21.05;;;12.60;;
38783;SDS011;24531;45.502;12.238;2024-02-26T07:44:24;21.48;;;13.30;;
38783;SDS011;24531;45.502;12.238;2024-02-26T07:46:49;20.75;;;13.23;;
38783;SDS011;24531;45.502;12.238;2024-02-26T07:49:15;22.35;;;13.13;;
38783;SDS011;24531;45.502;12.238;2024-02-26T07:51:41;21.77;;;12.63;;
38783;SDS011;24531;45.502;12.238;2024-02-26T07:54:07;20.58;;;12.50;;
38783;SDS011;24531;45.502;12.238;2024-02-26T07:56:32;19.17;;;12.93;;
38783;SDS011;24531;45.502;12.238;2024-02-26T07:58:58;20.10;;;11.75;;
38783;SDS011;24531;45.502;12.238;2024-02-26T08:01:24;23.00;;;13.68;;
38783;SDS011;24531;45.502;12.238;2024-02-26T08:03:51;23.27;;;13.77;;
38783;SDS011;24531;45.502;12.238;2024-02-26T08:06:18;20.60;;;12.25;;
38783;SDS011;24531;45.502;12.238;2024-02-26T08:08:43;23.63;;;13.27;;
38783;SDS011;24531;45.502;12.238;2024-02-26T08:11:09;23.02;;;13.38;;
38783;SDS011;24531;45.502;12.238;2024-02-26T08:13:35;21.17;;;13.13;;
38783;SDS011;24531;45.502;12.238;2024-02-26T08:16:01;26.35;;;14.90;;
38783;SDS011;24531;45.502;12.238;2024-02-26T08:18:26;24.77;;;14.13;;
38783;SDS011;24531;45.502;12.238;2024-02-26T08:20:52;25.15;;;13.02;;
38783;SDS011;24531;45.502;12.238;2024-02-26T08:23:18;20.80;;;12.68;;
38783;SDS011;24531;45.502;12.238;2024-02-26T08:25:43;19.45;;;12.23;;
38783;SDS011;24531;45.502;12.238;2024-02-26T08:28:09;21.70;;;13.90;;
38783;SDS011;24531;45.502;12.238;2024-02-26T08:30:38;19.75;;;13.45;;
38783;SDS011;24531;45.502;12.238;2024-02-26T08:33:04;18.67;;;13.57;;
38783;SDS011;24531;45.502;12.238;2024-02-26T08:35:29;22.58;;;15.50;;
38783;SDS011;24531;45.502;12.238;2024-02-26T08:37:55;29.25;;;14.95;;
38783;SDS011;24531;45.502;12.238;2024-02-26T08:40:20;26.48;;;16.08;;
38783;SDS011;24531;45.502;12.238;2024-02-26T08:42:46;25.73;;;14.75;;
38783;SDS011;24531;45.502;12.238;2024-02-26T08:45:12;23.83;;;14.50;;
38783;SDS011;24531;45.502;12.238;2024-02-26T08:47:38;21.38;;;13.93;;
38783;SDS011;24531;45.502;12.238;2024-02-26T08:50:04;26.70;;;14.70;;
38783;SDS011;24531;45.502;12.238;2024-02-26T08:52:30;25.40;;;15.20;;
38783;SDS011;24531;45.502;12.238;2024-02-26T08:54:55;23.83;;;14.23;;
38783;SDS011;24531;45.502;12.238;2024-02-26T08:57:22;24.40;;;15.48;;
38783;SDS011;24531;45.502;12.238;2024-02-26T08:59:48;26.15;;;14.73;;
38783;SDS011;24531;45.502;12.238;2024-02-26T09:02:13;22.60;;;14.25;;
38783;SDS011;24531;45.502;12.238;2024-02-26T09:04:39;21.67;;;14.50;;
38783;SDS011;24531;45.502;12.238;2024-02-26T09:07:05;24.17;;;14.68;;
38783;SDS011;24531;45.502;12.238;2024-02-26T09:09:31;30.00;;;14.85;;
38783;SDS011;24531;45.502;12.238;2024-02-26T09:11:57;25.58;;;13.73;;
38783;SDS011;24531;45.502;12.238;2024-02-26T09:14:23;22.65;;;14.25;;
38783;SDS011;24531;45.502;12.238;2024-02-26T09:16:48;22.02;;;14.70;;
38783;SDS011;24531;45.502;12.238;2024-02-26T09:19:14;21.55;;;14.70;;
38783;SDS011;24531;45.502;12.238;2024-02-26T09:21:45;23.25;;;13.90;;
38783;SDS011;24531;45.502;12.238;2024-02-26T09:24:11;23.48;;;13.25;;
38783;SDS011;24531;45.502;12.238;2024-02-26T09:26:37;18.95;;;12.23;;
38783;SDS011;24531;45.502;12.238;2024-02-26T09:29:03;23.73;;;12.75;;
38783;SDS011;24531;45.502;12.238;2024-02-26T16:12:52;12.15;;;5.93;;
38783;SDS011;24531;45.502;12.238;2024-02-26T16:15:19;12.65;;;6.05;;
38783;SDS011;24531;45.502;12.238;2024-02-26T16:17:48;11.30;;;5.68;;
38783;SDS011;24531;45.502;12.238;2024-02-26T16:20:17;10.27;;;5.43;;
38783;SDS011;24531;45.502;12.238;2024-02-26T16:22:45;10.13;;;6.10;;
38783;SDS011;24531;45.502;12.238;2024-02-26T16:25:11;9.95;;;5.75;;
38783;SDS011;24531;45.502;12.238;2024-02-26T16:27:37;9.05;;;6.00;;
38783;SDS011;24531;45.502;12.238;2024-02-26T16:30:03;7.45;;;5.28;;
38783;SDS011;24531;45.502;12.238;2024-02-26T16:32:35;9.13;;;5.15;;
38783;SDS011;24531;45.502;12.238;2024-02-26T16:35:05;6.35;;;4.85;;
38783;SDS011;24531;45.502;12.238;2024-02-26T16:37:32;7.40;;;4.13;;
38783;SDS011;24531;45.502;12.238;2024-02-26T16:39:58;10.10;;;4.70;;
38783;SDS011;24531;45.502;12.238;2024-02-26T16:42:25;6.55;;;4.10;;
38783;SDS011;24531;45.502;12.238;2024-02-26T16:44:52;6.60;;;4.65;;
38783;SDS011;24531;45.502;12.238;2024-02-26T16:47:17;10.43;;;4.25;;
38783;SDS011;24531;45.502;12.238;2024-02-26T16:49:43;7.07;;;4.32;;
38783;SDS011;24531;45.502;12.238;2024-02-26T16:52:10;6.45;;;4.15;;
38783;SDS011;24531;45.502;12.238;2024-02-26T16:54:36;7.40;;;4.47;;
38783;SDS011;24531;45.502;12.238;2024-02-26T16:57:02;9.43;;;6.07;;
38783;SDS011;24531;45.502;12.238;2024-02-26T16:59:28;12.32;;;5.60;;
38783;SDS011;24531;45.502;12.238;2024-02-26T17:01:54;7.82;;;4.95;;
38783;SDS011;24531;45.502;12.238;2024-02-26T17:04:21;9.60;;;5.38;;
38783;SDS011;24531;45.502;12.238;2024-02-26T17:06:48;9.23;;;6.00;;
38783;SDS011;24531;45.502;12.238;2024-02-26T17:09:14;11.88;;;7.05;;
38783;SDS011;24531;45.502;12.238;2024-02-26T17:11:39;12.65;;;7.40;;
38783;SDS011;24531;45.502;12.238;2024-02-26T17:14:05;9.40;;;7.50;;
38783;SDS011;24531;45.502;12.238;2024-02-26T17:16:31;13.65;;;8.75;;
38783;SDS011;24531;45.502;12.238;2024-02-26T17:18:57;13.60;;;8.85;;
38783;SDS011;24531;45.502;12.238;2024-02-26T17:21:23;15.25;;;8.25;;
38783;SDS011;24531;45.502;12.238;2024-02-26T17:23:49;11.00;;;7.57;;
38783;SDS011;24531;45.502;12.238;2024-02-26T17:26:19;11.13;;;7.68;;
38783;SDS011;24531;45.502;12.238;2024-02-26T17:28:45;9.10;;;6.22;;
38783;SDS011;24531;45.502;12.238;2024-02-26T17:31:12;11.55;;;6.75;;
38783;SDS011;24531;45.502;12.238;2024-02-26T17:33:38;8.02;;;5.95;;
38783;SDS011;24531;45.502;12.238;2024-02-26T17:36:03;10.40;;;5.70;;
38783;SDS011;24531;45.502;12.238;2024-02-26T17:38:29;9.80;;;5.60;;
38783;SDS011;24531;45.502;12.238;2024-02-26T17:40:55;10.75;;;6.72;;
38783;SDS011;24531;45.502;12.238;2024-02-26T17:43:21;7.15;;;6.07;;
38783;SDS011;24531;45.502;12.238;2024-02-26T17:45:46;8.77;;;6.80;;
38783;SDS011;24531;45.502;12.238;2024-02-26T17:48:12;11.45;;;7.13;;
38783;SDS011;24531;45.502;12.238;2024-02-26T17:50:38;13.05;;;7.97;;
38783;SDS011;24531;45.502;12.238;2024-02-26T17:53:04;8.68;;;6.80;;
38783;SDS011;24531;45.502;12.238;2024-02-26T17:55:30;10.02;;;6.20;;
38783;SDS011;24531;45.502;12.238;2024-02-26T17:57:55;9.88;;;7.68;;
38783;SDS011;24531;45.502;12.238;2024-02-26T18:00:21;12.20;;;7.82;;
38783;SDS011;24531;45.502;12.238;2024-02-26T18:02:47;11.18;;;7.80;;
38783;SDS011;24531;45.502;12.238;2024-02-26T18:05:13;13.57;;;7.88;;
38783;SDS011;24531;45.502;12.238;2024-02-26T18:07:39;11.00;;;6.85;;
38783;SDS011;24531;45.502;12.238;2024-02-26T18:10:07;13.40;;;7.55;;
38783;SDS011;24531;45.502;12.238;2024-02-26T18:12:37;9.70;;;7.32;;
38783;SDS011;24531;45.502;12.238;2024-02-26T18:15:05;8.95;;;6.35;;
38783;SDS011;24531;45.502;12.238;2024-02-26T18:17:35;11.68;;;5.43;;
38783;SDS011;24531;45.502;12.238;2024-02-26T18:20:01;10.48;;;6.53;;
38783;SDS011;24531;45.502;12.238;2024-02-26T18:22:29;8.65;;;5.10;;
38783;SDS011;24531;45.502;12.238;2024-02-26T18:24:55;8.98;;;5.07;;
38783;SDS011;24531;45.502;12.238;2024-02-26T18:27:21;6.63;;;4.40;;
38783;SDS011;24531;45.502;12.238;2024-02-26T18:29:46;4.38;;;3.35;;
38783;SDS011;24531;45.502;12.238;2024-02-26T18:32:12;5.75;;;4.05;;
38783;SDS011;24531;45.502;12.238;2024-02-26T18:34:38;9.43;;;3.97;;
38783;SDS011;24531;45.502;12.238;2024-02-26T18:37:04;8.02;;;3.60;;
38783;SDS011;24531;45.502;12.238;2024-02-26T18:39:31;6.43;;;3.50;;
38783;SDS011;24531;45.502;12.238;2024-02-26T18:41:56;8.52;;;3.75;;
38783;SDS011;24531;45.502;12.238;2024-02-26T18:44:25;6.15;;;4.32;;
38783;SDS011;24531;45.502;12.238;2024-02-26T18:46:51;7.07;;;5.03;;
38783;SDS011;24531;45.502;12.238;2024-02-26T18:49:17;9.38;;;5.45;;
38783;SDS011;24531;45.502;12.238;2024-02-26T18:51:43;6.65;;;3.75;;
38783;SDS011;24531;45.502;12.238;2024-02-26T18:54:08;5.65;;;4.30;;
38783;SDS011;24531;45.502;12.238;2024-02-26T18:56:34;4.53;;;4.10;;
38783;SDS011;24531;45.502;12.238;2024-02-26T18:59:03;5.15;;;4.10;;
38783;SDS011;24531;45.502;12.238;2024-02-26T19:01:28;5.80;;;4.10;;
38783;SDS011;24531;45.502;12.238;2024-02-26T19:03:56;6.75;;;3.75;;
38783;SDS011;24531;45.502;12.238;2024-02-26T19:06:21;6.85;;;4.53;;
38783;SDS011;24531;45.502;12.238;2024-02-26T19:08:47;7.05;;;4.15;;
38783;SDS011;24531;45.502;12.238;2024-02-26T19:11:13;6.72;;;3.85;;
38783;SDS011;24531;45.502;12.238;2024-02-26T19:13:40;4.20;;;3.30;;
38783;SDS011;24531;45.502;12.238;2024-02-26T19:16:06;3.58;;;2.72;;
38783;SDS011;24531;45.502;12.238;2024-02-26T19:18:31;5.57;;;3.70;;
38783;SDS011;24531;45.502;12.238;2024-02-26T19:20:57;5.60;;;3.47;;
38783;SDS011;24531;45.502;12.238;2024-02-26T19:23:24;3.30;;;2.90;;
38783;SDS011;24531;45.502;12.238;2024-02-26T19:25:50;7.30;;;3.53;;
38783;SDS011;24531;45.502;12.238;2024-02-26T19:28:15;4.75;;;3.65;;
38783;SDS011;24531;45.502;12.238;2024-02-26T19:30:41;4.50;;;3.55;;
38783;SDS011;24531;45.502;12.238;2024-02-26T19:33:07;5.88;;;3.67;;
38783;SDS011;24531;45.502;12.238;2024-02-26T19:35:36;6.00;;;3.50;;
38783;SDS011;24531;45.502;12.238;2024-02-26T19:38:03;5.18;;;3.70;;
38783;SDS011;24531;45.502;12.238;2024-02-26T19:40:28;5.15;;;4.18;;
38783;SDS011;24531;45.502;12.238;2024-02-26T19:42:54;7.20;;;4.25;;
38783;SDS011;24531;45.502;12.238;2024-02-26T19:45:20;6.18;;;3.95;;
38783;SDS011;24531;45.502;12.238;2024-02-26T19:47:45;5.40;;;3.92;;
38783;SDS011;24531;45.502;12.238;2024-02-26T19:50:12;10.00;;;5.00;;
38783;SDS011;24531;45.502;12.238;2024-02-26T19:52:37;7.18;;;4.32;;
38783;SDS011;24531;45.502;12.238;2024-02-26T19:55:03;7.35;;;4.93;;
38783;SDS011;24531;45.502;12.238;2024-02-26T19:57:29;6.40;;;5.03;;
38783;SDS011;24531;45.502;12.238;2024-02-26T19:59:55;6.80;;;6.07;;
38783;SDS011;24531;45.502;12.238;2024-02-26T20:02:21;24.60;;;13.45;;
38783;SDS011;24531;45.502;12.238;2024-02-26T20:04:46;18.10;;;9.35;;
38783;SDS011;24531;45.502;12.238;2024-02-26T20:07:12;15.88;;;7.72;;
38783;SDS011;24531;45.502;12.238;2024-02-26T20:09:39;10.40;;;7.15;;
38783;SDS011;24531;45.502;12.238;2024-02-26T20:12:05;10.02;;;6.53;;
38783;SDS011;24531;45.502;12.238;2024-02-26T20:14:32;8.70;;;6.18;;
38783;SDS011;24531;45.502;12.238;2024-02-26T20:17:00;10.23;;;6.15;;
38783;SDS011;24531;45.502;12.238;2024-02-26T20:19:26;10.90;;;6.38;;
38783;SDS011;24531;45.502;12.238;2024-02-26T20:21:53;8.25;;;5.60;;
38783;SDS011;24531;45.502;12.238;2024-02-26T20:24:19;7.63;;;5.63;;
38783;SDS011;24531;45.502;12.238;2024-02-26T20:26:44;8.23;;;5.45;;
38783;SDS011;24531;45.502;12.238;2024-02-26T20:29:14;7.35;;;5.40;;
38783;SDS011;24531;45.502;12.238;2024-02-26T20:31:40;6.65;;;5.20;;
38783;SDS011;24531;45.502;12.238;2024-02-26T20:34:05;7.97;;;5.22;;
38783;SDS011;24531;45.502;12.238;2024-02-26T20:36:33;7.13;;;5.70;;
38783;SDS011;24531;45.502;12.238;2024-02-26T20:38:59;7.30;;;5.50;;
38783;SDS011;24531;45.502;12.238;2024-02-26T20:41:27;6.95;;;5.40;;
38783;SDS011;24531;45.502;12.238;2024-02-26T20:43:53;8.43;;;4.95;;
38783;SDS011;24531;45.502;12.238;2024-02-26T20:46:18;9.45;;;5.68;;
38783;SDS011;24531;45.502;12.238;2024-02-26T20:48:44;8.38;;;4.43;;
38783;SDS011;24531;45.502;12.238;2024-02-26T20:51:10;9.07;;;5.60;;
38783;SDS011;24531;45.502;12.238;2024-02-26T20:53:35;7.22;;;4.93;;